Time;durP1;ratioP1;P1;durP2;ratioP2;P2;SDS_P1;SDS_P2;PMS_P1;PMS_P2;Temp;Humidity;BMP_temperature;BMP_pressure;BME280_temperature;BME280_humidity;BME280_pressure;Samples;Min_cycle;Max_cycle;Signal;HPM_P1;HPM_P2
2022/01/30 00:02:45;;;;;;;0.50;0.50;;;;;;;17.59;50.76;97805.72;10287331;28;20035;-22
2022/01/30 00:07:45;;;;;;;0.40;0.40;;;;;;;17.57;50.71;97803.13;10287198;28;20035;-22
2022/01/30 00:12:58;;;;;;;0.50;0.50;;;;;;;17.58;50.91;97809.06;10287584;28;20045;-22
2022/01/30 00:18:09;;;;;;;0.70;0.45;;;;;;;17.57;51.28;97810.72;10287947;28;20045;-23
2022/01/30 00:23:19;;;;;;;0.65;0.50;;;;;;;17.63;52.18;97799.88;10287099;28;20128;-22
2022/01/30 00:28:23;;;;;;;0.73;0.65;;;;;;;17.66;51.83;97795.72;10304276;28;20064;-22
2022/01/30 00:33:25;;;;;;;0.80;0.60;;;;;;;17.59;51.46;97785.44;10327067;28;20554;-22
2022/01/30 00:38:26;;;;;;;0.40;0.40;;;;;;;17.57;51.41;97794.69;10291833;28;20042;-22
2022/01/30 00:43:26;;;;;;;0.82;0.70;;;;;;;17.55;50.72;97789.59;10286188;28;20043;-22
2022/01/30 00:48:27;;;;;;;0.73;0.73;;;;;;;17.54;50.90;97787.03;10285969;28;20038;-22
2022/01/30 00:53:27;;;;;;;0.40;0.40;;;;;;;17.54;51.32;97785.34;10289126;28;20045;-22
2022/01/30 00:58:29;;;;;;;0.70;0.70;;;;;;;17.51;51.04;97790.34;10298185;28;20042;-22
2022/01/30 01:03:29;;;;;;;0.50;0.43;;;;;;;17.54;50.82;97792.09;10284245;28;20102;-23
2022/01/30 01:08:47;;;;;;;0.60;0.60;;;;;;;17.48;51.41;97777.63;10285618;28;20131;-22
2022/01/30 01:24:09;;;;;;;0.50;0.50;;;;;;;17.58;51.81;97766.03;10292164;28;20046;-22
2022/01/30 01:29:10;;;;;;;0.60;0.50;;;;;;;17.62;51.83;97766.09;10316100;28;20141;-22
2022/01/30 01:39:10;;;;;;;0.40;0.40;;;;;;;17.54;50.95;97779.41;10292206;28;20482;-22
2022/01/30 01:44:17;;;;;;;0.20;0.20;;;;;;;17.51;50.86;97781.91;10297886;28;20055;-23
2022/01/30 01:49:27;;;;;;;0.55;0.50;;;;;;;17.50;51.18;97786.09;10291816;28;20110;-22
2022/01/30 01:54:27;;;;;;;0.50;0.50;;;;;;;17.48;51.25;97771.72;10303592;28;20030;-22
2022/01/30 01:59:28;;;;;;;0.45;0.40;;;;;;;17.46;50.95;97756.50;10304899;28;20034;-22
2022/01/30 02:04:46;;;;;;;0.60;0.40;;;;;;;17.46;51.35;97758.16;10289668;28;20052;-22
2022/01/30 02:09:46;;;;;;;0.52;0.52;;;;;;;17.44;50.94;97737.91;10290535;28;20023;-22
2022/01/30 02:30:35;;;;;;;0.70;0.52;;;;;;;17.54;51.79;97732.19;10324884;28;20050;-22
2022/01/30 02:35:36;;;;;;;0.50;0.50;;;;;;;17.52;51.62;97732.97;10313105;28;20039;-22
2022/01/30 02:40:40;;;;;;;0.40;0.40;;;;;;;17.39;50.88;97706.56;10289217;28;20062;-22
2022/01/30 02:45:48;;;;;;;0.55;0.50;;;;;;;17.30;50.96;97690.28;10291331;28;20170;-23
2022/01/30 02:55:49;;;;;;;0.57;0.57;;;;;;;17.42;51.05;97726.03;10304524;28;20026;-22
2022/01/30 03:00:49;;;;;;;0.30;0.30;;;;;;;17.40;51.00;97717.56;10288654;28;20298;-23
2022/01/30 03:05:49;;;;;;;0.40;0.40;;;;;;;17.38;51.35;97699.78;10288116;28;20120;-22
2022/01/30 03:10:50;;;;;;;0.50;0.50;;;;;;;17.39;51.13;97706.56;10304010;28;20286;-23
2022/01/30 03:15:51;;;;;;;0.32;0.32;;;;;;;17.38;51.19;97712.44;10288830;28;20465;-22
2022/01/30 03:20:51;;;;;;;0.55;0.35;;;;;;;17.35;51.21;97711.50;10292254;28;20035;-22
2022/01/30 03:25:57;;;;;;;0.43;0.40;;;;;;;17.38;51.10;97709.03;10307630;28;20147;-22
2022/01/30 03:31:14;;;;;;;0.30;0.30;;;;;;;17.45;51.67;97695.69;10291783;28;20033;-22
2022/01/30 03:36:19;;;;;;;0.40;0.40;;;;;;;17.46;51.88;97707.53;10297158;28;20054;-22
2022/01/30 03:41:20;;;;;;;0.50;0.50;;;;;;;17.42;51.16;97700.72;10290122;28;20062;-22
2022/01/30 03:46:22;;;;;;;0.32;0.32;;;;;;;17.40;51.17;97682.94;10287917;28;20568;-22
2022/01/30 03:51:23;;;;;;;0.60;0.55;;;;;;;17.37;51.21;97682.03;10287636;28;20126;-23
2022/01/30 03:56:23;;;;;;;0.50;0.50;;;;;;;17.37;51.25;97692.16;10303878;28;20031;-22
2022/01/30 04:01:24;;;;;;;0.47;0.43;;;;;;;17.34;51.09;97697.97;10292133;28;20796;-23
2022/01/30 04:06:24;;;;;;;0.40;0.40;;;;;;;17.35;51.18;97703.91;10305720;28;20117;-22
2022/01/30 04:11:25;;;;;;;0.22;0.20;;;;;;;17.31;51.04;97708.03;10289189;28;20669;-22
2022/01/30 04:16:49;;;;;;;0.50;0.30;;;;;;;17.32;50.69;97706.38;10304301;28;20039;-23
2022/01/30 04:22:03;;;;;;;0.47;0.47;;;;;;;17.32;50.77;97703.84;10297276;28;20039;-22
2022/01/30 04:27:04;;;;;;;0.40;0.30;;;;;;;17.32;51.55;97709.75;10298302;28;20038;-22
2022/01/30 04:32:26;;;;;;;1.50;0.40;;;;;;;17.44;51.50;97717.66;10329640;28;20039;-22
2022/01/30 05:00:38;;;;;;;0.32;0.32;;;;;;;17.29;50.72;97729.09;10298175;28;20118;-22
2022/01/30 05:06:03;;;;;;;0.60;0.40;;;;;;;17.28;51.18;97727.38;10297286;28;20499;-22
2022/01/30 05:11:09;;;;;;;0.57;0.50;;;;;;;17.25;51.14;97734.91;10294779;28;20081;-22
2022/01/30 05:16:26;;;;;;;0.70;0.45;;;;;;;17.27;51.28;97729.06;10292352;28;20159;-22
2022/01/30 05:21:57;;;;;;;0.28;0.28;;;;;;;17.24;50.75;97729.00;10290227;28;20126;-22
2022/01/30 05:27:06;;;;;;;0.38;0.30;;;;;;;17.26;50.98;97739.16;10316767;28;20125;-22
2022/01/30 05:32:19;;;;;;;0.40;0.40;;;;;;;17.32;51.48;97750.25;10332143;28;20378;-23
2022/01/30 05:37:43;;;;;;;0.40;0.30;;;;;;;17.40;51.67;97765.66;10304008;28;20178;-22
2022/01/30 05:43:04;;;;;;;0.98;0.50;;;;;;;17.32;50.97;97762.91;10292115;28;20050;-22
2022/01/30 05:48:11;;;;;;;0.30;0.30;;;;;;;17.27;51.23;97761.97;10292723;28;20504;-22
2022/01/30 05:53:32;;;;;;;0.50;0.40;;;;;;;17.26;50.93;97760.25;10294150;28;20418;-22
2022/01/30 05:58:53;;;;;;;0.28;0.28;;;;;;;17.25;51.21;97773.72;10305315;28;20039;-22
2022/01/30 06:04:19;;;;;;;0.10;0.10;;;;;;;17.25;50.93;97766.13;10283964;28;20070;-22
2022/01/30 06:09:20;;;;;;;0.40;0.40;;;;;;;17.22;51.05;97778.72;10306837;28;20282;-22
2022/01/30 06:14:25;;;;;;;0.30;0.30;;;;;;;17.23;51.12;97785.50;10294987;28;20720;-23
2022/01/30 06:19:36;;;;;;;0.30;0.30;;;;;;;17.22;51.24;97798.97;10305778;28;20038;-22
2022/01/30 06:25:13;;;;;;;0.20;0.20;;;;;;;17.22;50.82;97793.03;10289569;28;20525;-23
2022/01/30 06:30:39;;;;;;;;;;;;;;;17.21;50.89;97801.47;10282593;28;20035;-22
2022/01/30 06:35:58;;;;;;;0.30;0.30;;;;;;;17.23;51.53;97797.31;10290719;28;19913;-22
2022/01/30 06:41:08;;;;;;;0.20;0.20;;;;;;;17.33;51.61;97809.34;10305103;28;20069;-22
2022/01/30 06:46:46;;;;;;;0.35;0.35;;;;;;;17.27;51.70;97814.25;10324836;28;20069;-23
2022/01/30 06:52:09;;;;;;;0.20;0.20;;;;;;;17.24;51.11;97822.63;10296293;28;20414;-23
2022/01/30 06:57:28;;;;;;;0.30;0.30;;;;;;;17.22;51.13;97833.53;10304926;28;20054;-22
2022/01/30 07:02:46;;;;;;;0.30;0.28;;;;;;;17.20;50.95;97840.25;10289182;28;20106;-23
2022/01/30 07:08:07;;;;;;;0.20;0.20;;;;;;;17.20;50.92;97837.72;10288509;28;20486;-22
2022/01/30 07:13:10;;;;;;;0.30;0.30;;;;;;;17.19;50.97;97829.28;10288585;28;20031;-23
2022/01/30 07:18:10;;;;;;;0.20;0.20;;;;;;;17.17;50.97;97840.19;10288640;28;20402;-22
2022/01/30 07:23:10;;;;;;;0.33;0.30;;;;;;;17.07;51.55;97838.28;10288740;28;20034;-22
2022/01/30 07:28:11;;;;;;;0.93;0.27;;;;;;;17.15;50.92;97846.91;10305771;28;20050;-22
2022/01/30 07:33:11;;;;;;;0.30;0.30;;;;;;;17.13;51.34;97869.63;10328627;28;20269;-22
2022/01/30 07:38:13;;;;;;;0.27;0.27;;;;;;;17.17;51.56;97865.50;10298358;28;20034;-22
2022/01/30 07:43:13;;;;;;;0.40;0.32;;;;;;;17.28;51.62;97874.19;10287847;28;20035;-22
2022/01/30 07:48:23;;;;;;;0.20;0.20;;;;;;;17.26;51.56;97876.66;10286585;28;20030;-22
2022/01/30 07:53:23;;;;;;;0.40;0.30;;;;;;;17.11;51.07;97860.28;10291155;28;20018;-22
2022/01/30 07:58:23;;;;;;;0.30;0.30;;;;;;;17.12;51.44;97857.78;10299824;28;20035;-22
2022/01/30 08:03:24;;;;;;;0.22;0.20;;;;;;;17.09;51.06;97866.97;10287503;28;20301;-22
2022/01/30 08:08:24;;;;;;;0.30;0.30;;;;;;;17.13;50.71;97876.34;10287642;28;20482;-22
2022/01/30 08:13:25;;;;;;;0.20;0.20;;;;;;;17.13;51.15;97884.81;10287014;28;20425;-22
2022/01/30 08:18:25;;;;;;;0.40;0.40;;;;;;;16.94;51.48;97866.63;10287249;28;20035;-22
2022/01/30 08:23:28;;;;;;;0.57;0.30;;;;;;;17.10;51.06;97894.88;10288946;28;20038;-22
2022/01/30 08:28:29;;;;;;;1.05;0.32;;;;;;;17.11;50.76;97900.75;10314150;28;20045;-21
2022/01/30 08:33:29;;;;;;;0.20;0.20;;;;;;;17.08;51.13;97910.81;10335316;28;20045;-22
2022/01/30 08:38:30;;;;;;;0.77;0.30;;;;;;;17.09;50.98;97912.53;10304471;28;20113;-22
2022/01/30 08:43:31;;;;;;;0.33;0.23;;;;;;;17.11;51.86;97918.47;10294445;28;20045;-22
2022/01/30 08:48:32;;;;;;;0.40;0.40;;;;;;;17.18;51.59;97922.88;10294545;28;20063;-22
2022/01/30 08:53:32;;;;;;;0.40;0.30;;;;;;;17.19;51.46;97922.91;10299891;28;20537;-22
2022/01/30 08:58:33;;;;;;;0.30;0.30;;;;;;;17.15;51.08;97925.34;10305352;28;20038;-22
2022/01/30 09:03:33;;;;;;;0.30;0.20;;;;;;;17.11;51.46;97931.13;10294087;28;20294;-22
2022/01/30 09:08:33;;;;;;;0.33;0.33;;;;;;;17.07;51.24;97931.88;10293113;28;20074;-22
2022/01/30 09:13:34;;;;;;;0.47;0.40;;;;;;;17.08;51.02;97938.66;10293791;28;20041;-22
2022/01/30 09:18:37;;;;;;;0.30;0.30;;;;;;;17.09;51.19;97937.84;10293841;28;20046;-22
2022/01/30 09:23:38;;;;;;;0.13;0.13;;;;;;;17.07;50.99;97939.47;10293173;28;20035;-20
2022/01/30 09:28:40;;;;;;;0.38;0.28;;;;;;;17.05;51.09;97933.50;10313972;28;20444;-22
2022/01/30 09:33:41;;;;;;;0.30;0.30;;;;;;;16.95;51.18;97924.84;10331765;28;20068;-22
2022/01/30 09:38:42;;;;;;;0.40;0.20;;;;;;;17.04;51.42;97937.72;10293391;28;20062;-22
2022/01/30 09:43:45;;;;;;;0.20;0.20;;;;;;;17.02;50.98;97941.91;10292950;28;20330;-22
2022/01/30 09:48:49;;;;;;;0.30;0.20;;;;;;;17.07;51.85;97931.88;10292033;28;20470;-22
2022/01/30 09:53:50;;;;;;;0.20;0.10;;;;;;;17.16;51.38;97930.41;10298921;28;20042;-22
2022/01/30 09:58:51;;;;;;;0.25;0.25;;;;;;;17.12;51.68;97932.84;10300526;28;20039;-22
2022/01/30 10:03:51;;;;;;;0.40;0.30;;;;;;;17.09;51.15;97937.84;10292265;28;20278;-22
2022/01/30 10:08:56;;;;;;;0.22;0.22;;;;;;;17.07;51.24;97940.31;10291847;28;20178;-22
2022/01/30 10:14:11;;;;;;;0.30;0.30;;;;;;;17.04;51.24;97944.44;10291516;28;20046;-22
2022/01/30 10:19:17;;;;;;;0.30;0.20;;;;;;;17.04;51.29;97939.38;10291444;28;20118;-22
2022/01/30 10:24:20;;;;;;;0.25;0.25;;;;;;;17.01;50.90;97935.13;10291306;28;20512;-22
2022/01/30 10:29:31;;;;;;;0.43;0.20;;;;;;;17.02;51.08;97944.44;10316512;28;20045;-22
2022/01/30 10:34:34;;;;;;;0.20;0.20;;;;;;;17.01;51.53;97945.25;10318502;28;20050;-22
2022/01/30 10:40:06;;;;;;;0.25;0.25;;;;;;;16.98;51.67;97935.03;10290442;28;20027;-22
2022/01/30 10:45:34;;;;;;;0.20;0.20;;;;;;;16.99;51.14;97933.38;10290030;28;20034;-22
2022/01/30 10:50:37;;;;;;;0.32;0.30;;;;;;;16.97;51.29;97933.31;10289945;28;20050;-22
2022/01/30 10:55:43;;;;;;;0.28;0.20;;;;;;;17.07;51.51;97931.88;10306214;28;20042;-21
2022/01/30 11:00:51;;;;;;;0.30;0.30;;;;;;;17.11;51.53;97914.28;10289257;28;20041;-22
2022/01/30 11:05:53;;;;;;;0.15;0.15;;;;;;;17.08;51.60;97914.19;10289359;28;20121;-22
2022/01/30 11:11:01;;;;;;;0.30;0.30;;;;;;;17.06;51.16;97899.81;10289478;28;20039;-22
2022/01/30 11:21:22;;;;;;;0.17;0.17;;;;;;;16.99;51.25;97881.06;10289084;28;20066;-22
2022/01/30 11:26:23;;;;;;;0.43;0.20;;;;;;;16.99;51.08;97882.78;10290250;28;20044;-22
2022/01/30 11:31:24;;;;;;;0.30;0.30;;;;;;;16.96;51.41;97865.84;10328276;28;20031;-22
2022/01/30 11:36:25;;;;;;;0.28;0.20;;;;;;;16.97;51.50;97861.63;10301378;28;20121;-22
2022/01/30 11:41:26;;;;;;;0.20;0.20;;;;;;;16.96;51.28;97860.78;10288088;28;20049;-22
2022/01/30 11:46:26;;;;;;;0.20;0.20;;;;;;;16.96;51.36;97854.84;10288424;28;20044;-22
2022/01/30 11:51:50;;;;;;;0.40;0.40;;;;;;;16.94;51.28;97842.19;10287635;28;20085;-22
2022/01/30 11:56:50;;;;;;;0.28;0.25;;;;;;;16.95;51.34;97831.25;10303594;28;20297;-22
2022/01/30 12:01:51;;;;;;;0.10;0.10;;;;;;;17.03;51.52;97813.69;10287270;28;20513;-22
2022/01/30 12:06:51;;;;;;;0.20;0.20;;;;;;;17.07;51.63;97800.31;10287204;28;20039;-22
2022/01/30 12:11:57;;;;;;;0.30;0.30;;;;;;;16.95;51.37;97780.66;10287692;28;20293;-23
2022/01/30 12:17:05;;;;;;;0.20;0.13;;;;;;;16.99;51.14;97789.16;10287755;28;20565;-22
2022/01/30 12:22:20;;;;;;;0.10;0.10;;;;;;;16.96;51.26;97791.59;10286886;28;20505;-22
2022/01/30 12:27:21;;;;;;;0.25;0.25;;;;;;;16.94;51.07;97785.66;10297046;28;20042;-21
2022/01/30 12:32:24;;;;;;;0.40;0.15;;;;;;;16.93;51.64;97773.84;10327548;28;20034;-22
2022/01/30 12:37:28;;;;;;;0.43;0.30;;;;;;;16.86;51.42;97777.03;10306004;28;20042;-21
2022/01/30 12:42:32;;;;;;;0.30;0.30;;;;;;;16.90;51.30;97782.22;10286633;28;20035;-22
2022/01/30 12:47:49;;;;;;;0.20;0.20;;;;;;;16.92;51.31;97789.84;10286330;28;20122;-22
2022/01/30 12:52:52;;;;;;;;;;;;;;;16.78;51.41;97763.38;10287099;28;20104;-21
2022/01/30 12:57:54;;;;;;;0.30;0.20;;;;;;;16.88;51.11;97783.84;10302218;28;20060;-22
2022/01/30 13:03:00;;;;;;;0.35;0.20;;;;;;;16.89;51.41;97782.19;10286876;28;20043;-22
2022/01/30 13:08:00;;;;;;;0.20;0.15;;;;;;;16.99;51.87;97776.53;10285969;28;20039;-22
2022/01/30 13:13:04;;;;;;;0.30;0.30;;;;;;;17.02;51.63;97763.94;10293424;28;20034;-22
2022/01/30 13:18:04;;;;;;;0.30;0.30;;;;;;;16.89;51.58;97752.69;10294282;28;20046;-21
2022/01/30 13:23:05;;;;;;;0.57;0.30;;;;;;;16.95;51.31;97754.50;10293199;28;20417;-22
2022/01/30 13:28:05;;;;;;;0.23;0.23;;;;;;;16.92;51.25;97756.97;10308928;28;20026;-22
2022/01/30 13:33:16;;;;;;;0.20;0.13;;;;;;;16.90;51.45;97758.59;10330489;28;20096;-22
2022/01/30 13:38:16;;;;;;;0.57;0.20;;;;;;;16.90;51.08;97753.53;10293445;28;20704;-22
2022/01/30 13:43:24;;;;;;;0.33;0.30;;;;;;;16.64;51.49;97713.31;10293090;28;20042;-21
2022/01/30 13:48:33;;;;;;;0.10;0.10;;;;;;;16.85;51.41;97745.84;10291918;28;20773;-22
2022/01/30 13:53:37;;;;;;;0.30;0.30;;;;;;;16.84;51.31;97750.88;10297658;28;20030;-22
2022/01/30 13:58:37;;;;;;;0.60;0.25;;;;;;;16.84;51.22;97753.41;10301942;28;20038;-22
2022/01/30 14:03:39;;;;;;;0.30;0.20;;;;;;;16.84;51.47;97753.41;10291796;28;20521;-22
2022/01/30 14:08:50;;;;;;;0.20;0.10;;;;;;;16.85;51.41;97750.06;10291885;28;20415;-22
2022/01/30 14:13:57;;;;;;;0.50;0.30;;;;;;;16.91;51.85;97751.03;10292271;28;20031;-22
2022/01/30 14:18:57;;;;;;;0.25;0.25;;;;;;;16.97;51.24;97747.78;10291034;28;20043;-22
2022/01/30 14:23:58;;;;;;;0.30;0.20;;;;;;;16.90;51.43;97734.16;10291629;28;20127;-22
2022/01/30 14:29:21;;;;;;;0.20;0.20;;;;;;;16.88;51.48;97725.69;10313845;28;20523;-22
2022/01/30 14:34:23;;;;;;;0.38;0.30;;;;;;;16.86;51.29;97726.47;10325348;28;20096;-22
2022/01/30 14:39:24;;;;;;;0.65;0.25;;;;;;;16.84;51.59;97718.81;10290870;28;20038;-22
2022/01/30 14:44:24;;;;;;;0.10;0.10;;;;;;;16.82;51.09;97707.84;10289762;28;20405;-22
2022/01/30 14:49:26;;;;;;;0.45;0.22;;;;;;;16.80;51.76;97690.91;10289849;28;20094;-22
2022/01/30 14:54:26;;;;;;;0.20;0.20;;;;;;;16.80;51.40;97680.78;10301722;28;20038;-22
2022/01/30 14:59:27;;;;;;;0.27;0.20;;;;;;;16.79;51.57;97681.63;10294188;28;20035;-22
2022/01/30 15:04:28;;;;;;;0.32;0.20;;;;;;;16.79;51.13;97685.00;10289844;28;20059;-23
2022/01/30 15:09:29;;;;;;;0.20;0.20;;;;;;;16.77;51.83;97674.84;10288973;28;20030;-22
2022/01/30 15:14:36;;;;;;;1.50;0.25;;;;;;;16.70;51.68;97650.25;10289869;28;20495;-21
2022/01/30 15:19:36;;;;;;;0.63;0.20;;;;;;;16.84;51.60;97657.28;10289184;28;20242;-22
2022/01/30 15:24:36;;;;;;;0.77;0.30;;;;;;;16.91;51.46;97656.59;10289346;28;20437;-22
2022/01/30 15:29:37;;;;;;;0.40;0.30;;;;;;;16.80;51.87;97632.75;10316951;28;20485;-21
2022/01/30 15:34:37;;;;;;;0.43;0.20;;;;;;;16.86;51.36;97653.13;10299458;28;20508;-22
2022/01/30 15:39:38;;;;;;;0.47;0.40;;;;;;;16.83;51.28;97653.06;10288589;28;20490;-22
2022/01/30 15:50:08;;;;;;;0.25;0.20;;;;;;;16.71;51.70;97645.19;10268513;28;20070;-22
2022/01/30 15:55:09;;;;;;;0.85;0.38;;;;;;;16.79;51.56;97654.66;10303453;28;20499;-22
2022/01/30 16:00:13;;;;;;;0.47;0.30;;;;;;;16.77;51.46;97652.94;10287785;28;20058;-22
2022/01/30 16:05:14;;;;;;;1.17;0.50;;;;;;;16.76;51.61;97651.22;10287896;28;20085;-21
2022/01/30 16:10:20;;;;;;;0.20;0.20;;;;;;;16.80;51.78;97660.56;10286988;28;20035;-21
2022/01/30 16:15:39;;;;;;;;;;;;;;;16.81;51.63;97649.66;10288165;28;20109;-22
2022/01/30 16:20:40;;;;;;;0.28;0.28;;;;;;;16.67;51.50;97615.63;10286387;28;19918;-22
2022/01/30 16:25:42;;;;;;;0.20;0.13;;;;;;;17.02;50.96;97652.63;10287034;28;20046;-21
2022/01/30 16:30:42;;;;;;;0.35;0.25;;;;;;;17.09;50.84;97644.31;10324329;28;20505;-21
2022/01/30 16:35:43;;;;;;;0.28;0.22;;;;;;;17.18;50.61;97652.09;10310995;28;20076;-21
2022/01/30 16:40:46;;;;;;;0.43;0.30;;;;;;;17.24;50.50;97659.81;10286688;28;20378;-21
2022/01/30 16:45:50;;;;;;;0.50;0.30;;;;;;;17.27;50.34;97659.88;10290705;28;20409;-22
2022/01/30 16:50:50;;;;;;;0.60;0.40;;;;;;;17.34;50.39;97661.69;10294372;28;20085;-21
2022/01/30 16:55:51;;;;;;;1.20;0.40;;;;;;;17.35;50.30;97653.28;10310338;28;20556;-21
2022/01/30 17:00:51;;;;;;;0.20;0.20;;;;;;;17.40;50.53;97659.34;10294631;28;20305;-21
2022/01/30 17:05:52;;;;;;;0.30;0.30;;;;;;;17.38;50.49;97653.34;10293717;28;20114;-21
2022/01/30 17:10:54;;;;;;;0.30;0.30;;;;;;;17.40;50.41;97644.97;10293599;28;20035;-21
2022/01/30 17:15:56;;;;;;;0.40;0.40;;;;;;;17.43;50.42;97641.66;10294152;28;20756;-21
2022/01/30 17:20:56;;;;;;;0.60;0.40;;;;;;;17.44;50.68;97633.22;10293259;28;20405;-22
2022/01/30 17:25:57;;;;;;;0.50;0.28;;;;;;;17.45;50.67;97632.41;10293721;28;20034;-21
2022/01/30 17:30:57;;;;;;;0.50;0.40;;;;;;;17.46;50.56;97624.84;10332460;28;20114;-21
2022/01/30 17:35:58;;;;;;;0.30;0.30;;;;;;;17.51;50.66;97624.94;10310570;28;20517;-21
2022/01/30 17:40:59;;;;;;;0.45;0.40;;;;;;;17.54;50.27;97622.44;10292524;28;20097;-21
2022/01/30 17:45:59;;;;;;;0.50;0.40;;;;;;;17.53;50.58;97618.22;10293225;28;20046;-21
2022/01/30 17:50:59;;;;;;;1.13;0.60;;;;;;;17.52;50.40;97622.44;10292615;28;20108;-21
2022/01/30 17:56:00;;;;;;;0.30;0.30;;;;;;;17.50;50.65;97618.16;10308347;28;20506;-21
2022/01/30 18:01:00;;;;;;;0.60;0.40;;;;;;;17.49;50.81;97611.41;10292366;28;20321;-21
2022/01/30 18:06:03;;;;;;;0.57;0.30;;;;;;;17.50;50.69;97606.34;10291778;28;20034;-22
2022/01/30 18:11:03;;;;;;;0.50;0.40;;;;;;;17.51;50.91;97600.44;10291459;28;20389;-21
2022/01/30 18:16:04;;;;;;;0.55;0.40;;;;;;;17.51;50.78;97586.94;10292208;28;20130;-21
2022/01/30 18:21:05;;;;;;;0.60;0.50;;;;;;;17.50;50.78;97585.25;10291024;28;20549;-21
2022/01/30 18:26:05;;;;;;;0.30;0.30;;;;;;;17.51;50.80;97574.28;10291115;28;20479;-22
2022/01/30 18:31:06;;;;;;;0.30;0.30;;;;;;;17.48;50.89;97566.66;10331014;28;20037;-21
2022/01/30 18:36:13;;;;;;;0.40;0.40;;;;;;;17.50;50.60;97580.19;10307969;28;20031;-21
2022/01/30 18:41:14;;;;;;;0.28;0.17;;;;;;;17.56;50.78;97557.50;10290862;28;20291;-21
2022/01/30 18:46:15;;;;;;;0.52;0.30;;;;;;;17.57;50.52;97538.97;10290647;28;20035;-21
2022/01/30 18:51:16;;;;;;;0.90;0.38;;;;;;;17.55;50.65;97541.47;10289916;28;20397;-21
2022/01/30 18:56:17;;;;;;;0.43;0.40;;;;;;;17.53;50.83;97542.25;10305814;28;20035;-21
2022/01/30 19:01:18;;;;;;;0.40;0.38;;;;;;;17.51;51.01;97531.25;10289599;28;20562;-21
2022/01/30 19:06:19;;;;;;;0.70;0.40;;;;;;;17.50;50.82;97527.84;10289097;28;20034;-22
2022/01/30 19:11:19;;;;;;;0.60;0.57;;;;;;;17.50;51.13;97521.97;10289355;28;20125;-22
2022/01/30 19:16:20;;;;;;;0.55;0.28;;;;;;;17.47;50.99;97514.28;10290241;28;20062;-21
2022/01/30 19:21:21;;;;;;;0.40;0.38;;;;;;;17.48;50.72;97508.44;10288884;28;20043;-21
2022/01/30 19:26:25;;;;;;;1.65;0.35;;;;;;;17.49;50.98;97515.19;10291117;28;20085;-21
2022/01/30 19:31:25;;;;;;;0.40;0.40;;;;;;;17.50;51.08;97511.84;10328488;28;20061;-21
2022/01/30 19:36:26;;;;;;;0.30;0.30;;;;;;;17.50;50.90;97511.84;10314801;28;20505;-22
2022/01/30 19:41:26;;;;;;;0.70;0.50;;;;;;;17.49;50.65;97503.38;10288495;28;20524;-21
2022/01/30 19:46:27;;;;;;;0.40;0.30;;;;;;;17.55;50.87;97490.81;10288229;28;20040;-21
2022/01/30 19:51:28;;;;;;;3.47;1.77;;;;;;;16.91;44.70;97484.63;10294742;28;20026;-20
2022/01/30 19:56:33;;;;;;;13.93;2.72;;;;;;;16.18;44.84;97468.81;10306720;28;20517;-20
2022/01/30 20:01:33;;;;;;;14.25;2.35;;;;;;;16.23;44.45;97477.34;10317150;28;20033;-20
2022/01/30 20:06:35;;;;;;;3.30;1.20;;;;;;;16.87;46.79;97468.53;10322007;28;20054;-20
2022/01/30 20:11:35;;;;;;;6.70;1.83;;;;;;;17.18;46.66;97473.31;10294646;28;20030;-20
2022/01/30 20:16:36;;;;;;;1.63;1.20;;;;;;;17.29;48.42;97470.94;10341042;28;20490;-21
2022/01/30 20:21:36;;;;;;;4.50;1.42;;;;;;;17.27;49.10;97462.47;10342497;28;20034;-20
2022/01/30 20:26:37;;;;;;;5.50;1.10;;;;;;;17.32;49.16;97463.41;10318564;28;20026;-20
2022/01/30 20:31:37;;;;;;;2.90;0.77;;;;;;;17.33;49.51;97465.94;10328273;28;20030;-20
2022/01/30 20:36:38;;;;;;;3.50;1.03;;;;;;;17.37;49.53;97470.28;10341371;28;20404;-20
2022/01/30 20:41:39;;;;;;;2.13;0.95;;;;;;;17.39;49.91;97467.75;10314583;28;20301;-20
2022/01/30 20:46:39;;;;;;;2.30;0.77;;;;;;;17.38;50.33;97474.50;10315626;28;20428;-21
2022/01/30 20:51:39;;;;;;;4.07;0.90;;;;;;;17.34;50.34;97444.03;10324774;28;20821;-19
2022/01/30 20:56:40;;;;;;;5.05;2.00;;;;;;;17.36;50.08;97439.88;10316116;28;20042;-20
2022/01/30 21:01:40;;;;;;;3.00;0.90;;;;;;;17.39;50.50;97422.19;10322044;28;20046;-20
2022/01/30 21:06:42;;;;;;;4.32;0.95;;;;;;;17.37;50.22;97424.72;10312559;28;20305;-21
2022/01/30 21:11:46;;;;;;;3.70;0.77;;;;;;;17.41;50.59;97407.91;10317433;28;20497;-20
2022/01/30 21:16:47;;;;;;;1.85;0.82;;;;;;;17.39;50.40;97404.47;10319586;28;20097;-20
2022/01/30 21:21:47;;;;;;;3.33;1.00;;;;;;;17.36;50.64;97396.84;10296676;28;20039;-20
2022/01/30 21:26:47;;;;;;;3.03;1.07;;;;;;;17.36;50.88;97381.66;10315042;28;20113;-20
2022/01/30 21:31:48;;;;;;;2.53;0.80;;;;;;;17.37;50.97;97373.22;10328183;28;20035;-20
2022/01/30 21:36:48;;;;;;;1.33;0.70;;;;;;;17.36;50.59;97353.81;10330164;28;20129;-20
2022/01/30 21:41:49;;;;;;;3.55;0.98;;;;;;;17.36;50.85;97328.50;10318402;28;20469;-20
2022/01/30 21:46:49;;;;;;;4.20;0.90;;;;;;;17.35;50.72;97317.50;10312224;28;20046;-20
2022/01/30 21:51:50;;;;;;;8.38;1.88;;;;;;;17.36;51.04;97310.78;10311134;28;20380;-20
2022/01/30 21:56:50;;;;;;;0.80;0.60;;;;;;;17.36;50.80;97310.78;10325284;28;20100;-20
2022/01/30 22:01:52;;;;;;;3.20;0.83;;;;;;;17.36;50.71;97315.84;10342599;28;20384;-21
2022/01/30 22:06:53;;;;;;;4.93;1.00;;;;;;;17.35;51.03;97299.81;10359279;28;20307;-21
2022/01/30 22:11:53;;;;;;;2.20;1.27;;;;;;;17.32;51.27;97312.41;10340658;28;20089;-20
2022/01/30 22:16:55;;;;;;;5.97;1.00;;;;;;;17.36;51.60;97300.66;10291647;28;20038;-20
2022/01/30 22:21:55;;;;;;;2.42;1.00;;;;;;;17.26;51.53;97261.69;10291197;28;20122;-20
2022/01/30 22:26:55;;;;;;;3.03;1.20;;;;;;;17.39;51.35;97280.44;10297266;28;20126;-20
2022/01/30 22:31:56;;;;;;;2.90;1.10;;;;;;;17.37;51.79;97261.88;10331266;28;20026;-21
2022/01/30 22:36:57;;;;;;;2.90;1.17;;;;;;;17.37;51.38;97251.75;10313127;28;20030;-20
2022/01/30 22:41:57;;;;;;;2.10;0.85;;;;;;;17.37;51.80;97249.22;10289091;28;20034;-20
2022/01/30 22:46:59;;;;;;;2.85;1.02;;;;;;;17.38;51.58;97230.66;10290827;28;20039;-20
2022/01/30 22:52:00;;;;;;;2.75;1.00;;;;;;;17.40;51.72;97206.25;10289579;28;20054;-20
2022/01/30 22:57:00;;;;;;;6.15;1.25;;;;;;;17.36;52.06;97184.25;10292007;28;20146;-20
2022/01/30 23:02:03;;;;;;;6.55;0.90;;;;;;;17.35;51.93;97182.50;10289957;28;20046;-20
2022/01/30 23:07:04;;;;;;;3.13;0.95;;;;;;;17.37;51.94;97173.28;10289323;28;20057;-21
2022/01/30 23:12:05;;;;;;;3.92;1.15;;;;;;;17.35;52.14;97159.75;10289420;28;20045;-20
2022/01/30 23:17:05;;;;;;;5.68;1.10;;;;;;;17.36;51.91;97164.88;10289251;28;20113;-20
2022/01/30 23:22:05;;;;;;;4.33;1.50;;;;;;;17.38;52.22;97155.59;10289085;28;20042;-20
2022/01/30 23:27:06;;;;;;;3.55;1.10;;;;;;;17.39;51.83;97166.56;10296264;28;20301;-20
2022/01/30 23:32:07;;;;;;;2.70;0.70;;;;;;;17.37;51.92;97156.44;10328846;28;20041;-20
2022/01/30 23:37:07;;;;;;;3.78;0.90;;;;;;;17.37;52.10;97128.59;10302898;28;20106;-20
2022/01/30 23:42:15;;;;;;;1.87;0.80;;;;;;;17.34;51.93;97104.91;10288460;28;20433;-21
2022/01/30 23:47:16;;;;;;;3.03;1.13;;;;;;;17.38;52.11;97099.91;10288334;28;20034;-20
2022/01/30 23:52:16;;;;;;;3.57;0.80;;;;;;;17.33;51.77;97060.19;10287392;28;20498;-20
2022/01/30 23:57:17;;;;;;;4.80;0.90;;;;;;;17.39;51.97;97083.03;10288346;28;20305;-20
